首页
METAR-TAF:

METAR-TAF

机场 :

奥古斯塔, 喬治亞, 美国

纬度: 33-21-52N, 经度: 081-57-48W, 海拔: 44米

当前天气观测

该预报发布于26分钟前的10:53 UTC
静风
温度 1°C
湿度 93%
气压 1026 hPa
能見度: 14.5公里
天空无云

METAR: KAGS 221053Z AUTO 00000KT 9SM CLR 01/00 A3030 RMK AO2 SLP260 T00110000

时间: 06:19 (11:19 UTC)

预报

该预报发布于30分钟前的10:49 UTC
预报有效从22日的 11点(UTC)到 23日的 06点(UTC)
风速4节,风向多变
能見度: 10公里
散云层高于25000英尺
从 22日的 1400点(UTC)
风速7节,风向东转东北,有时为15节阵风
能見度: 10公里
散云层高于25000英尺

TAF: KAGS 221049Z 2211/2306 VRB04KT P6SM SCT250 FM221400 07007G15KT P6SM SCT250

超过4000个机场的气象观测和天气预报(METAR&TAF报告)。

可查询的气象台以黄色和红色小点在地图上表示。

将鼠标移到小点上方,可查看气象台名称。

然后点击查看天气观测和预报。

如需切换地图:点击带黑十字的绿色按钮放大地图;点击带横线的绿色按钮缩小地图;或者点击绿色箭头查看邻近地区的地图。


METAR-TAF: